Anaconda, New Mexico
Current Conditions -  °F | °C
As of 12:55 PM on Thursday 18 Dec 2014 (Local Time) from KGNT Reporting Station
Overcast Overcast  
Wind Chill: 31°   Ceiling: 6000
Heat Index: 36°   Visibility: 10mi
Dew Point: 27°   Wind: 7mph
Humidity: 70%   Direction: 360°N
Pressure: 30.1"   Gusts: NA
Location:  35.2644°N, 107.733°W
Report Text: KGNT 181955Z AUTO 36006KT 10SM OVC060 02/M03 A3010 RMK AO2 T00231027
Loading
Personal Weather Stations






























Interactive Weather Map New forecast layout! Learn more

10-Day Weather Forecast

Advertisements
Track Severe Weather on mobile